createdAt,value
2022-12-15T00:02:28.105Z,24.88
2022-12-15T00:05:14.134Z,25.45
2022-12-15T00:08:00.068Z,25.42
2022-12-15T00:10:46.281Z,24.50
2022-12-15T00:13:32.881Z,25.98
2022-12-15T00:16:19.394Z,26.02
2022-12-15T00:19:05.173Z,26.05
2022-12-15T00:21:51.221Z,25.48
2022-12-15T00:24:37.342Z,27.88
2022-12-15T00:27:23.598Z,26.75
2022-12-15T00:30:09.396Z,28.67
2022-12-15T00:32:55.146Z,28.23
2022-12-15T00:35:40.985Z,27.50
2022-12-15T00:38:31.755Z,30.05
2022-12-15T00:41:00.311Z,32.35
2022-12-15T00:43:29.286Z,32.58
2022-12-15T00:46:15.486Z,33.28
2022-12-15T00:48:43.065Z,27.90
2022-12-15T00:51:10.441Z,27.42
2022-12-15T00:53:56.527Z,28.10
2022-12-15T00:56:42.819Z,27.15
2022-12-15T00:59:28.623Z,27.67
2022-12-15T01:02:14.928Z,26.95
2022-12-15T01:05:00.701Z,27.63
2022-12-15T01:07:49.947Z,27.90
2022-12-15T01:10:37.465Z,26.20
2022-12-15T01:13:23.771Z,26.17
2022-12-15T01:16:09.675Z,27.85
2022-12-15T01:18:55.667Z,27.67
2022-12-15T01:21:25.001Z,28.17
2022-12-15T01:23:53.155Z,25.95
2022-12-15T01:26:20.573Z,25.95
2022-12-15T01:28:47.907Z,27.27
2022-12-15T01:31:15.271Z,23.42
2022-12-15T01:33:43.747Z,23.08
2022-12-15T01:36:11.270Z,26.05
2022-12-15T01:38:38.651Z,26.92
2022-12-15T01:41:08.010Z,25.33
2022-12-15T01:43:36.733Z,27.85
2022-12-15T01:46:04.143Z,26.25
2022-12-15T01:48:46.721Z,26.85
2022-12-15T01:51:35.532Z,26.42
2022-12-15T01:54:11.651Z,25.15
2022-12-15T01:56:44.838Z,25.85
2022-12-15T01:59:15.169Z,24.27
2022-12-15T02:01:42.588Z,25.10
2022-12-15T02:04:10.869Z,26.00
2022-12-15T02:06:38.199Z,26.60
2022-12-15T02:09:05.664Z,25.58
2022-12-15T02:11:32.944Z,25.52
2022-12-15T02:14:01.789Z,25.40
2022-12-15T02:16:52.539Z,24.95
2022-12-15T02:19:38.504Z,24.33
2022-12-15T02:22:27.381Z,24.58
2022-12-15T02:25:08.205Z,25.13
2022-12-15T02:28:03.478Z,24.63
2022-12-15T02:30:43.053Z,23.75
2022-12-15T02:33:14.974Z,25.08
2022-12-15T02:36:00.518Z,23.67
2022-12-15T02:38:38.434Z,25.05
2022-12-15T02:41:06.448Z,24.60
2022-12-15T02:43:35.632Z,24.90
2022-12-15T02:46:22.286Z,24.33
2022-12-15T02:49:15.520Z,24.17
2022-12-15T02:51:58.487Z,24.75
2022-12-15T02:54:48.610Z,25.40
2022-12-15T02:57:25.378Z,25.63
2022-12-15T03:00:07.667Z,26.83
2022-12-15T03:02:35.130Z,25.70
2022-12-15T03:05:02.607Z,25.17
2022-12-15T03:07:29.941Z,25.27
2022-12-15T03:09:58.869Z,26.08
2022-12-15T03:12:26.238Z,26.00
2022-12-15T03:14:53.567Z,26.38
2022-12-15T03:17:20.863Z,26.60
2022-12-15T03:19:49.670Z,26.35
2022-12-15T03:22:17.682Z,26.10
2022-12-15T03:24:44.978Z,25.60
2022-12-15T03:27:12.295Z,26.65
2022-12-15T03:29:39.717Z,27.05
2022-12-15T03:32:07.099Z,28.40
2022-12-15T03:34:34.470Z,28.38
2022-12-15T03:37:01.748Z,28.67
2022-12-15T03:39:29.110Z,28.98
2022-12-15T03:41:56.405Z,27.45
2022-12-15T03:44:23.736Z,29.05
2022-12-15T03:46:51.047Z,28.10
2022-12-15T03:49:18.373Z,28.80
2022-12-15T03:51:45.660Z,29.17
2022-12-15T03:54:13.987Z,28.27
2022-12-15T03:56:41.292Z,29.17
2022-12-15T03:59:08.602Z,28.60
2022-12-15T04:01:36.484Z,30.60
2022-12-15T04:04:04.219Z,30.38
2022-12-15T04:06:31.725Z,30.02
2022-12-15T04:08:59.102Z,29.88
2022-12-15T04:11:26.541Z,28.92
2022-12-15T04:13:56.476Z,28.15
2022-12-15T04:16:23.812Z,30.05
2022-12-15T04:19:11.094Z,30.00
2022-12-15T04:21:38.413Z,29.90
2022-12-15T04:24:24.639Z,29.98
2022-12-15T04:27:10.416Z,30.15
2022-12-15T04:29:56.234Z,29.48
2022-12-15T04:32:42.130Z,29.48
2022-12-15T04:35:28.976Z,30.38
2022-12-15T04:38:14.621Z,30.60
2022-12-15T04:41:00.371Z,31.58
2022-12-15T04:43:45.995Z,31.50
2022-12-15T04:46:31.749Z,31.05
2022-12-15T04:49:17.562Z,32.55
2022-12-15T04:52:03.350Z,31.45
2022-12-15T04:54:49.512Z,32.75
2022-12-15T04:57:35.414Z,30.88
2022-12-15T05:00:21.728Z,31.98
2022-12-15T05:03:07.536Z,30.58
2022-12-15T05:05:53.454Z,30.58
2022-12-15T05:08:39.418Z,32.33
2022-12-15T05:11:25.153Z,30.67
2022-12-15T05:14:10.962Z,30.27
2022-12-15T05:16:56.977Z,29.45
2022-12-15T05:19:42.910Z,30.98
2022-12-15T05:22:28.665Z,30.17
2022-12-15T05:25:14.572Z,30.80
2022-12-15T05:28:00.284Z,31.30
2022-12-15T05:30:46.136Z,32.17
2022-12-15T05:33:13.457Z,30.92
2022-12-15T05:35:40.845Z,32.83
2022-12-15T05:38:08.164Z,31.73
2022-12-15T05:40:35.502Z,30.90
2022-12-15T05:43:02.832Z,31.02
2022-12-15T05:45:30.117Z,30.67
2022-12-15T05:47:57.423Z,32.15
2022-12-15T05:50:24.804Z,31.08
2022-12-15T05:52:52.201Z,29.60
2022-12-15T05:55:19.975Z,31.50
2022-12-15T05:57:53.855Z,30.88
2022-12-15T06:00:21.598Z,30.52
2022-12-15T06:02:49.865Z,31.48
2022-12-15T06:05:17.745Z,30.27
2022-12-15T06:07:45.091Z,30.45
2022-12-15T06:10:12.927Z,30.95
2022-12-15T06:12:40.205Z,31.63
2022-12-15T06:15:08.003Z,31.27
2022-12-15T06:17:35.297Z,30.50
2022-12-15T06:20:02.822Z,31.90
2022-12-15T06:22:31.273Z,30.92
2022-12-15T06:24:58.600Z,30.23
2022-12-15T06:27:25.916Z,30.77
2022-12-15T06:29:53.359Z,30.77
2022-12-15T06:32:21.338Z,30.33
2022-12-15T06:34:49.551Z,30.52
2022-12-15T06:37:16.847Z,30.10
2022-12-15T06:39:44.190Z,30.25
2022-12-15T06:42:11.540Z,31.13
2022-12-15T06:44:38.840Z,30.52
2022-12-15T06:47:07.425Z,31.63
2022-12-15T06:49:34.759Z,30.65
2022-12-15T06:52:02.092Z,29.35
2022-12-15T06:54:29.482Z,31.27
2022-12-15T06:56:56.761Z,31.15
2022-12-15T06:59:24.051Z,30.95
2022-12-15T07:01:51.481Z,30.80
2022-12-15T07:04:18.963Z,32.40
2022-12-15T07:06:46.337Z,31.30
2022-12-15T07:09:16.038Z,32.00
2022-12-15T07:11:43.921Z,30.73
2022-12-15T07:14:11.241Z,32.33
2022-12-15T07:16:39.046Z,33.00
2022-12-15T07:19:06.488Z,31.92
2022-12-15T07:21:33.834Z,33.00
2022-12-15T07:24:02.149Z,32.20
2022-12-15T07:26:30.539Z,32.85
2022-12-15T07:28:57.865Z,32.00
2022-12-15T07:31:25.339Z,32.38
2022-12-15T07:33:54.420Z,33.85
2022-12-15T07:36:22.063Z,32.80
2022-12-15T07:38:50.083Z,33.53
2022-12-15T07:41:18.925Z,33.47
2022-12-15T07:43:47.622Z,33.33
2022-12-15T07:46:15.710Z,32.88
2022-12-15T07:48:43.148Z,31.98
2022-12-15T07:51:17.372Z,33.00
2022-12-15T07:53:47.541Z,32.42
2022-12-15T07:56:15.481Z,33.40
2022-12-15T07:58:42.965Z,32.80
2022-12-15T08:01:12.396Z,31.98
2022-12-15T08:03:40.806Z,34.05
2022-12-15T08:06:10.280Z,34.97
2022-12-15T08:08:37.955Z,33.63
2022-12-15T08:11:09.670Z,34.13
2022-12-15T08:16:24.757Z,33.40
2022-12-15T08:18:52.113Z,34.17
2022-12-15T08:21:19.516Z,33.55
2022-12-15T08:23:46.895Z,34.78
2022-12-15T08:26:15.982Z,33.33
2022-12-15T08:28:43.430Z,34.85
2022-12-15T08:31:18.340Z,32.35
2022-12-15T08:33:46.022Z,32.33
2022-12-15T08:36:14.376Z,32.95
2022-12-15T08:38:42.237Z,33.97
2022-12-15T08:41:17.527Z,33.42
2022-12-15T08:43:48.600Z,34.05
2022-12-15T08:46:17.772Z,31.45
2022-12-15T08:48:45.230Z,32.97
2022-12-15T08:51:12.660Z,32.17
2022-12-15T08:53:40.002Z,33.63
2022-12-15T08:56:09.618Z,36.95
2022-12-15T08:58:36.972Z,35.92
2022-12-15T09:01:06.357Z,37.22
2022-12-15T09:03:35.974Z,33.30
2022-12-15T09:06:04.778Z,35.40
2022-12-15T09:08:32.365Z,33.67
2022-12-15T09:10:59.765Z,33.20
2022-12-15T09:13:27.246Z,33.20
2022-12-15T09:16:13.997Z,36.90
2022-12-15T09:18:46.623Z,35.35
2022-12-15T09:21:14.161Z,36.35
2022-12-15T09:23:41.580Z,34.90
2022-12-15T09:26:10.847Z,36.92
2022-12-15T09:28:38.459Z,38.40
2022-12-15T09:31:16.769Z,34.78
2022-12-15T09:33:44.365Z,34.75
2022-12-15T09:36:13.194Z,33.25
2022-12-15T09:38:41.372Z,33.72
2022-12-15T09:41:15.428Z,34.78
2022-12-15T09:43:52.320Z,37.30
2022-12-15T09:46:28.349Z,40.08
2022-12-15T09:48:56.007Z,39.88
2022-12-15T09:51:29.753Z,45.95
2022-12-15T09:53:57.430Z,35.95
2022-12-15T09:56:31.251Z,32.92
2022-12-15T09:59:20.923Z,38.22
2022-12-15T10:02:10.174Z,38.05
2022-12-15T10:05:07.242Z,38.88
2022-12-15T10:07:39.634Z,35.85
2022-12-15T10:10:17.865Z,35.95
2022-12-15T10:12:57.676Z,40.20
2022-12-15T10:15:29.839Z,35.78
2022-12-15T10:18:04.810Z,36.97
2022-12-15T10:20:32.167Z,43.55
2022-12-15T10:23:03.097Z,38.75
2022-12-15T10:25:31.260Z,34.80
2022-12-15T10:28:07.835Z,34.38
2022-12-15T10:30:35.363Z,34.58
2022-12-15T10:33:22.999Z,33.97
2022-12-15T10:35:52.626Z,35.65
2022-12-15T10:38:32.055Z,35.72
2022-12-15T10:41:01.770Z,36.40
2022-12-15T10:43:43.793Z,33.80
2022-12-15T10:46:21.927Z,35.33
2022-12-15T10:48:54.552Z,35.75
2022-12-15T10:51:21.978Z,34.47
2022-12-15T10:54:09.735Z,35.22
2022-12-15T10:57:00.159Z,35.63
2022-12-15T10:59:38.453Z,37.38
2022-12-15T11:02:24.266Z,35.55
2022-12-15T11:05:05.732Z,37.33
2022-12-15T11:07:40.897Z,35.00
2022-12-15T11:10:23.420Z,36.67
2022-12-15T11:13:12.196Z,36.03
2022-12-15T11:15:50.772Z,37.85
2022-12-15T11:18:32.670Z,36.10
2022-12-15T11:21:12.091Z,34.85
2022-12-15T11:23:50.864Z,37.22
2022-12-15T11:26:45.514Z,36.08
2022-12-15T11:29:18.907Z,37.97
2022-12-15T11:31:48.652Z,37.08
2022-12-15T11:34:18.530Z,38.10
2022-12-15T11:37:10.777Z,39.67
2022-12-15T11:40:15.479Z,39.13
2022-12-15T11:43:18.482Z,39.50
2022-12-15T11:45:48.795Z,40.55
2022-12-15T11:48:18.073Z,38.78
2022-12-15T11:51:00.366Z,42.90
2022-12-15T11:53:34.837Z,40.63
2022-12-15T11:56:16.174Z,38.80
2022-12-15T11:58:56.440Z,39.08
2022-12-15T12:01:49.450Z,39.08
2022-12-15T12:04:30.982Z,38.75
2022-12-15T12:07:04.159Z,41.97
2022-12-15T12:09:55.552Z,43.80
2022-12-15T12:12:28.572Z,39.58
2022-12-15T12:14:58.712Z,44.75
2022-12-15T12:17:52.842Z,40.60
2022-12-15T12:20:22.387Z,40.88
2022-12-15T12:23:02.426Z,41.08
2022-12-15T12:25:29.751Z,41.45
2022-12-15T12:28:13.398Z,38.05
2022-12-15T12:30:45.979Z,44.58
2022-12-15T12:33:25.482Z,39.97
2022-12-15T12:36:16.318Z,41.45
2022-12-15T12:41:38.501Z,41.20
2022-12-15T12:44:32.433Z,41.05
2022-12-15T12:47:06.369Z,38.20
2022-12-15T12:49:45.872Z,39.20
2022-12-15T12:52:24.433Z,60.58
2022-12-15T12:55:20.967Z,42.03
2022-12-15T12:57:50.085Z,41.55
2022-12-15T13:00:28.494Z,40.92
2022-12-15T13:02:57.182Z,39.72
2022-12-15T13:05:33.992Z,38.97
2022-12-15T13:08:06.758Z,38.42
2022-12-15T13:10:34.944Z,36.70
2022-12-15T13:13:30.235Z,38.25
2022-12-15T13:16:11.539Z,36.38
2022-12-15T13:19:04.613Z,37.53
2022-12-15T13:21:44.346Z,38.03
2022-12-15T13:24:30.770Z,39.75
2022-12-15T13:27:15.198Z,41.60
2022-12-15T13:32:35.612Z,38.75
2022-12-15T13:35:16.769Z,37.90
2022-12-15T13:37:53.019Z,37.53
2022-12-15T13:40:23.513Z,36.63
2022-12-15T13:43:19.695Z,36.80
2022-12-15T13:45:50.989Z,36.97
2022-12-15T13:48:36.390Z,36.22
2022-12-15T13:51:06.417Z,37.53
2022-12-15T13:53:42.520Z,37.67
2022-12-15T13:56:12.868Z,38.10
2022-12-15T13:58:43.812Z,39.47
2022-12-15T14:01:42.260Z,38.35
2022-12-15T14:04:15.690Z,40.55
2022-12-15T14:06:57.144Z,33.72
2022-12-15T14:09:28.463Z,43.28
2022-12-15T14:11:55.795Z,41.25
2022-12-15T14:14:25.686Z,40.67
2022-12-15T14:17:03.336Z,42.13
2022-12-15T14:19:38.888Z,41.08
2022-12-15T14:22:29.449Z,47.10
2022-12-15T14:25:09.266Z,41.40
2022-12-15T14:27:36.645Z,39.50
2022-12-15T14:30:29.806Z,38.38
2022-12-15T14:33:03.372Z,39.53
2022-12-15T14:35:31.727Z,40.28
2022-12-15T14:38:00.640Z,39.53
2022-12-15T14:40:29.068Z,39.85
2022-12-15T14:42:56.706Z,48.03
2022-12-15T14:45:26.044Z,45.70
2022-12-15T14:48:30.584Z,43.78
2022-12-15T14:50:46.254Z,41.90
2022-12-15T14:53:17.827Z,40.20
2022-12-15T14:55:45.139Z,47.40
2022-12-15T14:58:35.197Z,44.42
2022-12-15T15:01:03.387Z,40.75
2022-12-15T15:03:12.826Z,38.72
2022-12-15T15:03:40.938Z,45.90
2022-12-15T15:06:11.352Z,45.65
2022-12-15T15:08:52.637Z,38.85
2022-12-15T15:11:35.478Z,38.20
2022-12-15T15:14:10.469Z,39.08
2022-12-15T15:16:37.848Z,38.75
2022-12-15T15:19:05.505Z,36.13
2022-12-15T15:21:36.598Z,37.33
2022-12-15T15:24:25.453Z,37.50
2022-12-15T15:26:53.309Z,38.08
2022-12-15T15:29:40.993Z,37.42
2022-12-15T15:32:16.701Z,36.92
2022-12-15T15:34:45.070Z,37.47
2022-12-15T15:37:18.560Z,37.17
2022-12-15T15:39:48.182Z,27.17
2022-12-15T15:42:15.526Z,37.30
2022-12-15T15:44:42.927Z,35.80
2022-12-15T15:47:25.079Z,35.15
2022-12-15T15:49:53.439Z,37.90
2022-12-15T15:52:21.974Z,37.03
2022-12-15T15:54:49.405Z,37.80
2022-12-15T15:57:17.256Z,40.05
2022-12-15T15:59:45.278Z,38.35
2022-12-15T16:02:13.819Z,38.53
2022-12-15T16:04:44.538Z,37.45
2022-12-15T16:07:25.618Z,39.80
2022-12-15T16:09:53.462Z,37.40
2022-12-15T16:12:25.254Z,37.85
2022-12-15T16:14:52.554Z,38.67
2022-12-15T16:17:20.091Z,38.20
2022-12-15T16:19:47.502Z,38.10
2022-12-15T16:22:19.544Z,39.28
2022-12-15T16:24:47.035Z,38.30
2022-12-15T16:27:14.789Z,38.47
2022-12-15T16:29:42.364Z,39.40
2022-12-15T16:32:10.665Z,39.92
2022-12-15T16:34:38.232Z,39.25
2022-12-15T16:37:05.671Z,38.38
2022-12-15T16:39:34.066Z,38.90
2022-12-15T16:42:01.611Z,39.30
2022-12-15T16:44:29.464Z,38.58
2022-12-15T16:46:57.489Z,38.97
2022-12-15T16:49:25.171Z,37.47
2022-12-15T16:51:53.527Z,37.90
2022-12-15T16:54:23.674Z,40.95
2022-12-15T16:56:52.922Z,40.05
2022-12-15T16:59:37.349Z,39.92
2022-12-15T17:04:59.084Z,36.97
2022-12-15T17:07:26.953Z,39.05
2022-12-15T17:09:54.296Z,39.00
2022-12-15T17:12:21.599Z,38.17
2022-12-15T17:14:48.922Z,40.33
2022-12-15T17:17:17.537Z,40.53
2022-12-15T17:20:11.702Z,40.35
2022-12-15T17:22:33.268Z,39.80
2022-12-15T17:25:00.709Z,38.50
2022-12-15T17:27:28.497Z,38.70
2022-12-15T17:29:56.335Z,40.03
2022-12-15T17:32:23.641Z,41.40
2022-12-15T17:34:51.065Z,41.92
2022-12-15T17:37:18.867Z,40.05
2022-12-15T17:39:51.131Z,40.75
2022-12-15T17:42:19.712Z,41.90
2022-12-15T17:44:47.885Z,40.80
2022-12-15T17:47:15.504Z,40.78
2022-12-15T17:49:42.984Z,42.47
2022-12-15T17:52:24.923Z,43.88
2022-12-15T17:54:52.292Z,43.15
2022-12-15T17:57:20.029Z,43.53
2022-12-15T17:59:47.709Z,44.35
2022-12-15T18:02:15.597Z,44.13
2022-12-15T18:04:43.429Z,45.63
2022-12-15T18:07:18.181Z,43.30
2022-12-15T18:09:45.621Z,45.83
2022-12-15T18:12:21.577Z,45.05
2022-12-15T18:14:49.166Z,43.13
2022-12-15T18:17:16.608Z,44.13
2022-12-15T18:19:43.894Z,45.38
2022-12-15T18:22:23.941Z,47.22
2022-12-15T18:24:52.081Z,50.22
2022-12-15T18:27:24.591Z,44.83
2022-12-15T18:29:52.069Z,45.13
2022-12-15T18:32:20.409Z,47.72
2022-12-15T18:34:47.733Z,47.50
2022-12-15T18:37:19.409Z,46.00
2022-12-15T18:39:46.913Z,46.53
2022-12-15T18:42:19.182Z,46.30
2022-12-15T18:44:50.690Z,46.55
2022-12-15T18:47:19.385Z,46.67
2022-12-15T18:49:46.781Z,46.13
2022-12-15T18:52:24.161Z,44.85
2022-12-15T18:54:52.613Z,46.08
2022-12-15T18:57:32.865Z,44.92
2022-12-15T19:00:13.508Z,47.33
2022-12-15T19:02:41.543Z,47.95
2022-12-15T19:05:27.663Z,45.50
2022-12-15T19:08:04.221Z,44.63
2022-12-15T19:10:33.262Z,46.33
2022-12-15T19:13:00.847Z,47.53
2022-12-15T19:15:28.279Z,47.70
2022-12-15T19:18:14.125Z,49.13
2022-12-15T19:20:59.795Z,48.03
2022-12-15T19:23:27.178Z,45.35
2022-12-15T19:25:54.538Z,48.03
2022-12-15T19:28:23.130Z,47.08
2022-12-15T19:30:50.935Z,46.83
2022-12-15T19:33:18.435Z,44.92
2022-12-15T19:35:47.593Z,45.78
2022-12-15T19:38:23.931Z,43.67
2022-12-15T19:40:53.422Z,45.13
2022-12-15T19:43:22.170Z,46.15
2022-12-15T19:45:49.942Z,46.72
2022-12-15T19:48:22.937Z,44.20
2022-12-15T19:50:52.104Z,44.10
2022-12-15T19:53:24.311Z,46.22
2022-12-15T19:55:55.922Z,43.85
2022-12-15T19:58:30.076Z,45.03
2022-12-15T20:03:26.181Z,41.63
2022-12-15T20:05:54.130Z,45.17
2022-12-15T20:08:23.567Z,42.88
2022-12-15T20:10:51.145Z,42.58
2022-12-15T20:13:18.506Z,42.65
2022-12-15T20:15:45.936Z,42.25
2022-12-15T20:18:13.486Z,41.20
2022-12-15T20:20:41.642Z,42.95
2022-12-15T20:23:27.254Z,41.20
2022-12-15T20:25:55.873Z,39.58
2022-12-15T20:28:25.260Z,39.90
2022-12-15T20:30:52.805Z,40.55
2022-12-15T20:33:20.253Z,39.13
2022-12-15T20:35:48.193Z,41.20
2022-12-15T20:38:24.620Z,38.85
2022-12-15T20:40:52.639Z,37.80
2022-12-15T20:43:21.014Z,36.60
2022-12-15T20:45:53.277Z,37.63
2022-12-15T20:48:25.213Z,39.13
2022-12-15T20:50:53.342Z,37.65
2022-12-15T20:53:22.626Z,36.15
2022-12-15T20:55:50.664Z,33.58
2022-12-15T20:58:18.191Z,33.55
2022-12-15T21:00:45.854Z,32.75
2022-12-15T21:03:27.474Z,32.00
2022-12-15T21:05:56.579Z,30.73
2022-12-15T21:08:29.607Z,30.92
2022-12-15T21:11:18.358Z,28.90
2022-12-15T21:13:46.146Z,28.98
2022-12-15T21:16:21.350Z,27.05
2022-12-15T21:19:18.558Z,28.17
2022-12-15T21:21:43.956Z,25.52
2022-12-15T21:24:16.266Z,27.25
2022-12-15T21:26:43.637Z,25.55
2022-12-15T21:29:15.577Z,24.83
2022-12-15T21:31:43.024Z,24.90
2022-12-15T21:34:10.597Z,25.63
2022-12-15T21:36:38.695Z,24.88
2022-12-15T21:39:07.742Z,24.50
2022-12-15T21:41:35.347Z,22.90
2022-12-15T21:44:02.664Z,23.40
2022-12-15T21:46:30.048Z,22.73
2022-12-15T21:49:17.384Z,23.50
2022-12-15T21:51:56.277Z,22.00
2022-12-15T21:54:31.371Z,21.52
2022-12-15T21:56:59.848Z,20.67
2022-12-15T21:59:29.576Z,20.73
2022-12-15T22:01:57.107Z,21.30
2022-12-15T22:04:26.879Z,20.20
2022-12-15T22:06:54.210Z,21.15
2022-12-15T22:09:21.822Z,21.08
2022-12-15T22:11:50.148Z,19.80
2022-12-15T22:14:27.389Z,20.45
2022-12-15T22:16:54.877Z,19.15
2022-12-15T22:19:22.452Z,19.85
2022-12-15T22:21:49.970Z,20.35
2022-12-15T22:24:17.276Z,21.67
2022-12-15T22:26:44.594Z,29.83
2022-12-15T22:29:15.610Z,26.13
2022-12-15T22:31:43.071Z,30.90
2022-12-15T22:34:14.672Z,22.40
2022-12-15T22:36:42.304Z,21.42
2022-12-15T22:39:11.134Z,20.25
2022-12-15T22:41:45.702Z,19.63
2022-12-15T22:44:25.451Z,20.58
2022-12-15T22:46:53.989Z,20.30
2022-12-15T22:49:23.965Z,20.85
2022-12-15T22:51:51.367Z,20.10
2022-12-15T22:54:19.896Z,20.52
2022-12-15T22:57:06.822Z,20.48
2022-12-15T22:59:42.405Z,20.77
2022-12-15T23:02:09.839Z,20.75
2022-12-15T23:04:37.171Z,20.45
2022-12-15T23:07:05.580Z,19.70
2022-12-15T23:09:32.948Z,19.50
2022-12-15T23:12:00.342Z,19.33
2022-12-15T23:14:46.583Z,19.38
2022-12-15T23:17:13.958Z,19.25
2022-12-15T23:19:44.993Z,19.42
2022-12-15T23:22:12.638Z,20.15
2022-12-15T23:24:39.960Z,20.23
2022-12-15T23:27:10.323Z,21.05
2022-12-15T23:29:37.800Z,21.48
2022-12-15T23:32:06.033Z,19.15
2022-12-15T23:34:33.350Z,20.98
2022-12-15T23:37:00.881Z,20.45
2022-12-15T23:39:28.360Z,19.85
2022-12-15T23:41:55.673Z,20.33
2022-12-15T23:44:23.035Z,19.88
2022-12-15T23:46:50.449Z,21.38
2022-12-15T23:49:17.904Z,19.55
2022-12-15T23:51:45.243Z,21.13
2022-12-15T23:54:12.622Z,21.25
2022-12-15T23:56:40.467Z,20.02
2022-12-15T23:59:07.869Z,21.33
